Aviation Digital Data Service (ADDS)

Output produced by METARs form (0620 UTC 19 February 2019)
found at http://www.aviationweather.gov/metar/data/
 
Forecast for: LGAV (ATHENS/ELEF-VEN , GR)
Text: TAF LGAV 190500Z 1906/2006 VRB05KT 9999 FEW025
Forecast period: 0600 to 0700 UTC 19 February 2019
Forecast type: FROM: standard forecast or significant change
Winds: variable direction winds at 6 MPH (5 knots; 2.6 m/s)
Visibility: 6 or more miles 10+ km)
Ceiling: at least 12,000 feet AGL
Clouds: few clouds at 2500 feet AGL
Weather: no significant weather forecast for this period
Text: BECMG 1907/1909 02010KT
Forecast period: 0700 UTC 19 February 2019 to 0600 UTC 20 February 2019
Forecast type: BECOMING: Conditions expected to become as follows by 0900 UTC 19 February 2019
Winds: from the NNE (20 degrees) at 12 MPH (10 knots; 5.1 m/s)
Visibility: 6 or more miles 10+ km)
Ceiling: at least 12,000 feet AGL
Clouds: few clouds at 2500 feet AGL
Weather: no significant weather forecast for this period